Station Historical Data
Daily Summary for January 14, 2018 Units:  Both    English   Metric
« Previous Day
Next Day »
Daily Weekly Monthly Yearly Custom
  High: Low: Average:
Temperature: TemperatureF °F /  -17.8 °C -1.8 °F /  -18.8 °C 8.8 °F /  -12.9 °C
Dew Point: DewpointF °F /  -17.8 °C -6.0 °F /  -21.1 °C 2.7 °F /  -16.3 °C
Humidity: Humidity% 60% 76%
Wind Speed: WindSpeedMPHmph /  0km/h - 0.7mph /  1.1km/h
Wind Gust: WindSpeedGustMPHmph /  0km/h - -
Wind- - SSW
Pressure: PressureIn in /  0 hPa 30.62 in /  1036.8 hPa -
Precipitation: 0.00 in /  0 mm    
Historical Graphs
 
 
Tabular Data for January 14, 2018
Time Temperature Dew Point Pressure Wind Wind Speed Wind Gust Humidity Rainfall Rate (Hourly)
TemperatureF °F /  -17.8 °C DewpointF °F /  -17.8 °C PressureInin /  0hPa Calm     Humidity% HourlyPrecipInin /  0mm
00:04 8.4 °F /  -13.1 °C 3.5 °F /  -15.8 °C 30.62in /  1036.8hPa Calm   3.0mph /  4.8km/h 80% 0.00in /  0mm
00:09 8.3 °F /  -13.2 °C 3.4 °F /  -15.9 °C 30.62in /  1036.8hPa Calm     80% 0.00in /  0mm
00:14 8.3 °F /  -13.2 °C 3.4 °F /  -15.9 °C 30.62in /  1036.8hPa Calm     80% 0.00in /  0mm
00:24 8.2 °F /  -13.2 °C 3.6 °F /  -15.8 °C 30.62in /  1036.8hPa Calm     81% 0.00in /  0mm
00:29 8.2 °F /  -13.2 °C 3.6 °F /  -15.8 °C 30.62in /  1036.8hPa Calm     81% 0.00in /  0mm
00:34 8.2 °F /  -13.2 °C 3.6 °F /  -15.8 °C 30.62in /  1036.8hPa Calm     81% 0.00in /  0mm
00:39 8.2 °F /  -13.2 °C 3.6 °F /  -15.8 °C 30.62in /  1036.8hPa Calm     81% 0.00in /  0mm
00:44 8.3 °F /  -13.2 °C 3.7 °F /  -15.7 °C 30.62in /  1036.8hPa Calm     81% 0.00in /  0mm
00:49 8.4 °F /  -13.1 °C 3.8 °F /  -15.7 °C 30.62in /  1036.8hPa Calm     81% 0.00in /  0mm
00:54 8.4 °F /  -13.1 °C 3.8 °F /  -15.7 °C 30.62in /  1036.8hPa Calm     81% 0.00in /  0mm
00:59 8.4 °F /  -13.1 °C 3.8 °F /  -15.7 °C 30.62in /  1036.8hPa Calm     81% 0.00in /  0mm
01:05 8.4 °F /  -13.1 °C 4.0 °F /  -15.6 °C 30.62in /  1036.8hPa Calm     82% 0.00in /  0mm
01:10 8.5 °F /  -13.1 °C 4.1 °F /  -15.5 °C 30.63in /  1037.1hPa Calm     82% 0.00in /  0mm
01:15 8.4 °F /  -13.1 °C 4.0 °F /  -15.6 °C 30.63in /  1037.1hPa Calm     82% 0.00in /  0mm
01:20 8.4 °F /  -13.1 °C 4.0 °F /  -15.6 °C 30.63in /  1037.1hPa Calm     82% 0.00in /  0mm
01:25 8.4 °F /  -13.1 °C 4.0 °F /  -15.6 °C 30.63in /  1037.1hPa Calm     82% 0.00in /  0mm
01:30 8.4 °F /  -13.1 °C 4.0 °F /  -15.6 °C 30.63in /  1037.1hPa Calm     82% 0.00in /  0mm
01:35 8.5 °F /  -13.1 °C 4.1 °F /  -15.5 °C 30.63in /  1037.1hPa Calm     82% 0.00in /  0mm
01:40 8.5 °F /  -13.1 °C 4.1 °F /  -15.5 °C 30.63in /  1037.1hPa Calm     82% 0.00in /  0mm
01:45 8.5 °F /  -13.1 °C 4.1 °F /  -15.5 °C 30.63in /  1037.1hPa Calm     82% 0.00in /  0mm
01:50 8.5 °F /  -13.1 °C 4.1 °F /  -15.5 °C 30.63in /  1037.1hPa Calm     82% 0.00in /  0mm
01:55 8.4 °F /  -13.1 °C 4.0 °F /  -15.6 °C 30.64in /  1037.5hPa Calm     82% 0.00in /  0mm
02:00 8.5 °F /  -13.1 °C 4.1 °F /  -15.5 °C 30.64in /  1037.5hPa West 1.0mph /  1.6km/h 5.0mph /  8km/h 82% 0.00in /  0mm
02:05 8.4 °F /  -13.1 °C 4.0 °F /  -15.6 °C 30.64in /  1037.5hPa West 2.0mph /  3.2km/h 5.0mph /  8km/h 82% 0.00in /  0mm
02:10 8.2 °F /  -13.2 °C 3.8 °F /  -15.7 °C 30.64in /  1037.5hPa WSW 1.0mph /  1.6km/h 5.0mph /  8km/h 82% 0.00in /  0mm
02:15 8.1 °F /  -13.3 °C 3.7 °F /  -15.7 °C 30.64in /  1037.5hPa West 2.0mph /  3.2km/h 5.0mph /  8km/h 82% 0.00in /  0mm
02:20 7.9 °F /  -13.4 °C 3.5 °F /  -15.8 °C 30.65in /  1037.8hPa West 2.0mph /  3.2km/h 3.0mph /  4.8km/h 82% 0.00in /  0mm
02:25 7.7 °F /  -13.5 °C 3.4 °F /  -15.9 °C 30.65in /  1037.8hPa West 2.0mph /  3.2km/h 3.0mph /  4.8km/h 82% 0.00in /  0mm
02:30 7.4 °F /  -13.7 °C 3.1 °F /  -16.1 °C 30.65in /  1037.8hPa West 1.0mph /  1.6km/h 2.0mph /  3.2km/h 82% 0.00in /  0mm
02:35 7.2 °F /  -13.8 °C 2.9 °F /  -16.2 °C 30.65in /  1037.8hPa Calm   2.0mph /  3.2km/h 82% 0.00in /  0mm
02:40 7.0 °F /  -13.9 °C 2.4 °F /  -16.4 °C 30.65in /  1037.8hPa Calm   2.0mph /  3.2km/h 81% 0.00in /  0mm
02:45 6.7 °F /  -14.1 °C 2.1 °F /  -16.6 °C 30.66in /  1038.1hPa Calm   2.0mph /  3.2km/h 81% 0.00in /  0mm
02:50 6.4 °F /  -14.2 °C 1.8 °F /  -16.8 °C 30.66in /  1038.1hPa Calm   1.0mph /  1.6km/h 81% 0.00in /  0mm
02:55 6.2 °F /  -14.3 °C 1.6 °F /  -16.9 °C 30.66in /  1038.1hPa Calm   1.0mph /  1.6km/h 81% 0.00in /  0mm
03:00 5.7 °F /  -14.6 °C 1.1 °F /  -17.2 °C 30.66in /  1038.1hPa Calm   1.0mph /  1.6km/h 81% 0.00in /  0mm
03:05 5.4 °F /  -14.8 °C 0.8 °F /  -17.3 °C 30.66in /  1038.1hPa Calm   1.0mph /  1.6km/h 81% 0.00in /  0mm
03:10 5.3 °F /  -14.8 °C 0.7 °F /  -17.4 °C 30.66in /  1038.1hPa Calm     81% 0.00in /  0mm
03:15 5.0 °F /  -15 °C 0.4 °F /  -17.6 °C 30.66in /  1038.1hPa Calm   2.0mph /  3.2km/h 81% 0.00in /  0mm
03:20 4.7 °F /  -15.2 °C 0.2 °F /  -17.7 °C 30.66in /  1038.1hPa Calm   3.0mph /  4.8km/h 81% 0.00in /  0mm
03:25 4.5 °F /  -15.3 °C 0.0 °F /  -17.8 °C 30.67in /  1038.5hPa Calm   3.0mph /  4.8km/h 81% 0.00in /  0mm
03:35 4.1 °F /  -15.5 °C -0.4 °F /  -18 °C 30.67in /  1038.5hPa West 1.0mph /  1.6km/h 2.0mph /  3.2km/h 81% 0.00in /  0mm
03:40 4.0 °F /  -15.6 °C -0.5 °F /  -18.1 °C 30.67in /  1038.5hPa Calm   2.0mph /  3.2km/h 81% 0.00in /  0mm
03:45 3.8 °F /  -15.7 °C -0.7 °F /  -18.2 °C 30.67in /  1038.5hPa Calm     81% 0.00in /  0mm
03:50 3.7 °F /  -15.7 °C -0.8 °F /  -18.2 °C 30.67in /  1038.5hPa Calm     81% 0.00in /  0mm
03:55 3.6 °F /  -15.8 °C -0.7 °F /  -18.2 °C 30.67in /  1038.5hPa Calm     82% 0.00in /  0mm
04:00 3.5 °F /  -15.8 °C -0.8 °F /  -18.2 °C 30.67in /  1038.5hPa Calm     82% 0.00in /  0mm
04:05 3.3 °F /  -15.9 °C -1.0 °F /  -18.3 °C 30.67in /  1038.5hPa Calm     82% 0.00in /  0mm
04:10 3.1 °F /  -16.1 °C -1.4 °F /  -18.6 °C 30.67in /  1038.5hPa Calm     81% 0.00in /  0mm
04:15 2.7 °F /  -16.3 °C -1.8 °F /  -18.8 °C 30.67in /  1038.5hPa Calm     81% 0.00in /  0mm
04:20 2.6 °F /  -16.3 °C -1.9 °F /  -18.8 °C 30.67in /  1038.5hPa Calm     81% 0.00in /  0mm
04:25 2.4 °F /  -16.4 °C -2.1 °F /  -18.9 °C 30.68in /  1038.8hPa Calm     81% 0.00in /  0mm
04:30 2.3 °F /  -16.5 °C -2.2 °F /  -19 °C 30.67in /  1038.5hPa Calm     81% 0.00in /  0mm
04:35 2.2 °F /  -16.6 °C -2.0 °F /  -18.9 °C 30.68in /  1038.8hPa Calm     82% 0.00in /  0mm
04:40 1.9 °F /  -16.7 °C -2.6 °F /  -19.2 °C 30.68in /  1038.8hPa Calm     81% 0.00in /  0mm
04:45 1.7 °F /  -16.8 °C -2.8 °F /  -19.3 °C 30.68in /  1038.8hPa Calm     81% 0.00in /  0mm
04:50 1.6 °F /  -16.9 °C -2.9 °F /  -19.4 °C 30.68in /  1038.8hPa Calm     81% 0.00in /  0mm
04:55 1.3 °F /  -17.1 °C -3.2 °F /  -19.6 °C 30.69in /  1039.2hPa Calm     81% 0.00in /  0mm
05:00 1.2 °F /  -17.1 °C -3.0 °F /  -19.4 °C 30.69in /  1039.2hPa Calm     82% 0.00in /  0mm
05:05 1.1 °F /  -17.2 °C -3.1 °F /  -19.5 °C 30.69in /  1039.2hPa Calm     82% 0.00in /  0mm
05:10 1.0 °F /  -17.2 °C -3.2 °F /  -19.6 °C 30.69in /  1039.2hPa Calm     82% 0.00in /  0mm
05:15 1.0 °F /  -17.2 °C -3.2 °F /  -19.6 °C 30.69in /  1039.2hPa Calm     82% 0.00in /  0mm
05:20 1.0 °F /  -17.2 °C -3.2 °F /  -19.6 °C 30.70in /  1039.5hPa Calm     82% 0.00in /  0mm
05:25 1.0 °F /  -17.2 °C -3.2 °F /  -19.6 °C 30.70in /  1039.5hPa Calm     82% 0.00in /  0mm
05:30 1.1 °F /  -17.2 °C -3.1 °F /  -19.5 °C 30.70in /  1039.5hPa Calm     82% 0.00in /  0mm
05:35 1.2 °F /  -17.1 °C -3.0 °F /  -19.4 °C 30.70in /  1039.5hPa Calm     82% 0.00in /  0mm
05:40 1.2 °F /  -17.1 °C -3.0 °F /  -19.4 °C 30.70in /  1039.5hPa Calm     82% 0.00in /  0mm
05:44 1.3 °F /  -17.1 °C -2.7 °F /  -19.3 °C 30.70in /  1039.5hPa Calm     83% 0.00in /  0mm
05:54 1.5 °F /  -16.9 °C -2.5 °F /  -19.2 °C 30.70in /  1039.5hPa Calm     83% 0.00in /  0mm
05:59 1.5 °F /  -16.9 °C -2.5 °F /  -19.2 °C 30.71in /  1039.8hPa Calm     83% 0.00in /  0mm
06:04 1.4 °F /  -17 °C -2.6 °F /  -19.2 °C 30.71in /  1039.8hPa Calm     83% 0.00in /  0mm
06:10 1.4 °F /  -17 °C -2.6 °F /  -19.2 °C 30.71in /  1039.8hPa Calm     83% 0.00in /  0mm
06:15 1.3 °F /  -17.1 °C -2.7 °F /  -19.3 °C 30.71in /  1039.8hPa Calm     83% 0.00in /  0mm
06:19 1.2 °F /  -17.1 °C -2.8 °F /  -19.3 °C 30.71in /  1039.8hPa Calm     83% 0.00in /  0mm
06:25 1.1 °F /  -17.2 °C -3.1 °F /  -19.5 °C 30.71in /  1039.8hPa Calm     82% 0.00in /  0mm
06:35 0.9 °F /  -17.3 °C -3.1 °F /  -19.5 °C 30.71in /  1039.8hPa Calm     83% 0.00in /  0mm
06:40 0.9 °F /  -17.3 °C -3.1 °F /  -19.5 °C 30.71in /  1039.8hPa Calm     83% 0.00in /  0mm
06:45 0.8 °F /  -17.3 °C -3.2 °F /  -19.6 °C 30.71in /  1039.8hPa Calm     83% 0.00in /  0mm
06:49 0.6 °F /  -17.4 °C -3.3 °F /  -19.6 °C 30.72in /  1040.2hPa Calm     83% 0.00in /  0mm
06:54 0.5 °F /  -17.5 °C -3.7 °F /  -19.8 °C 30.72in /  1040.2hPa Calm     82% 0.00in /  0mm
07:05 0.1 °F /  -17.7 °C -4.1 °F /  -20.1 °C 30.72in /  1040.2hPa Calm     82% 0.00in /  0mm
07:09 -0.1 °F /  -17.8 °C -4.3 °F /  -20.2 °C 30.72in /  1040.2hPa Calm     82% 0.00in /  0mm
07:15 -0.3 °F /  -17.9 °C -4.5 °F /  -20.3 °C 30.72in /  1040.2hPa Calm     82% 0.00in /  0mm
07:19 -0.6 °F /  -18.1 °C -4.8 °F /  -20.4 °C 30.72in /  1040.2hPa Calm     82% 0.00in /  0mm
07:24 -0.8 °F /  -18.2 °C -5.0 °F /  -20.6 °C 30.72in /  1040.2hPa Calm     82% 0.00in /  0mm
07:30 -1.0 °F /  -18.3 °C -5.2 °F /  -20.7 °C 30.72in /  1040.2hPa Calm     82% 0.00in /  0mm
07:40 -1.5 °F /  -18.6 °C -5.7 °F /  -20.9 °C 30.73in /  1040.5hPa Calm     82% 0.00in /  0mm
07:45 -1.6 °F /  -18.7 °C -5.8 °F /  -21 °C 30.73in /  1040.5hPa Calm     82% 0.00in /  0mm
07:50 -1.7 °F /  -18.7 °C -5.9 °F /  -21.1 °C 30.73in /  1040.5hPa Calm     82% 0.00in /  0mm
07:55 -1.8 °F /  -18.8 °C -6.0 °F /  -21.1 °C 30.73in /  1040.5hPa Calm     82% 0.00in /  0mm
08:00 -1.8 °F /  -18.8 °C -6.0 °F /  -21.1 °C 30.73in /  1040.5hPa Calm     82% 0.00in /  0mm
08:04 -1.7 °F /  -18.7 °C -5.9 °F /  -21.1 °C 30.73in /  1040.5hPa Calm     82% 0.00in /  0mm
08:10 -1.6 °F /  -18.7 °C -5.8 °F /  -21 °C 30.74in /  1040.9hPa Calm     82% 0.00in /  0mm
08:15 -1.5 °F /  -18.6 °C -5.7 °F /  -20.9 °C 30.74in /  1040.9hPa Calm     82% 0.00in /  0mm
08:19 -1.4 °F /  -18.6 °C -5.3 °F /  -20.7 °C 30.74in /  1040.9hPa Calm     83% 0.00in /  0mm
08:24 -1.1 °F /  -18.4 °C -5.0 °F /  -20.6 °C 30.74in /  1040.9hPa SW 2.0mph /  3.2km/h 3.0mph /  4.8km/h 83% 0.00in /  0mm
08:29 -0.9 °F /  -18.3 °C -4.8 °F /  -20.4 °C 30.74in /  1040.9hPa SSW 1.0mph /  1.6km/h 3.0mph /  4.8km/h 83% 0.00in /  0mm
08:34 -0.5 °F /  -18.1 °C -4.4 °F /  -20.2 °C 30.74in /  1040.9hPa SSW 2.0mph /  3.2km/h 3.0mph /  4.8km/h 83% 0.00in /  0mm
08:40 -0.2 °F /  -17.9 °C -4.1 °F /  -20.1 °C 30.74in /  1040.9hPa SSW 2.0mph /  3.2km/h 3.0mph /  4.8km/h 83% 0.00in /  0mm
08:45 0.2 °F /  -17.7 °C -3.5 °F /  -19.7 °C 30.74in /  1040.9hPa South 1.0mph /  1.6km/h 4.0mph /  6.4km/h 84% 0.00in /  0mm
08:50 0.6 °F /  -17.4 °C -3.1 °F /  -19.5 °C 30.75in /  1041.2hPa South 4.0mph /  6.4km/h 4.0mph /  6.4km/h 84% 0.00in /  0mm
09:00 3.2 °F /  -16 °C -0.5 °F /  -18.1 °C 30.75in /  1041.2hPa Calm   4.0mph /  6.4km/h 84% 0.00in /  0mm
09:05 3.5 °F /  -15.8 °C -0.2 °F /  -17.9 °C 30.75in /  1041.2hPa Calm     84% 0.00in /  0mm
09:09 4.1 °F /  -15.5 °C 0.3 °F /  -17.6 °C 30.76in /  1041.5hPa Calm     84% 0.00in /  0mm
09:14 4.5 °F /  -15.3 °C 0.7 °F /  -17.4 °C 30.76in /  1041.5hPa Calm     84% 0.00in /  0mm
09:20 5.1 °F /  -14.9 °C 1.1 °F /  -17.2 °C 30.76in /  1041.5hPa Calm     83% 0.00in /  0mm
09:25 5.4 °F /  -14.8 °C 1.4 °F /  -17 °C 30.76in /  1041.5hPa Calm     83% 0.00in /  0mm
09:29 5.9 °F /  -14.5 °C 1.8 °F /  -16.8 °C 30.76in /  1041.5hPa Calm     83% 0.00in /  0mm
09:34 6.1 °F /  -14.4 °C 1.8 °F /  -16.8 °C 30.77in /  1041.9hPa Calm     82% 0.00in /  0mm
09:39 6.4 °F /  -14.2 °C 2.1 °F /  -16.6 °C 30.77in /  1041.9hPa Calm     82% 0.00in /  0mm
09:50 7.4 °F /  -13.7 °C 2.8 °F /  -16.2 °C 30.77in /  1041.9hPa Calm   2.0mph /  3.2km/h 81% 0.00in /  0mm
09:55 7.9 °F /  -13.4 °C 3.0 °F /  -16.1 °C 30.77in /  1041.9hPa South 2.0mph /  3.2km/h 3.0mph /  4.8km/h 80% 0.00in /  0mm
10:00 8.5 °F /  -13.1 °C 3.6 °F /  -15.8 °C 30.77in /  1041.9hPa South 1.0mph /  1.6km/h 3.0mph /  4.8km/h 80% 0.00in /  0mm
10:05 9.1 °F /  -12.7 °C 4.2 °F /  -15.4 °C 30.77in /  1041.9hPa Calm   4.0mph /  6.4km/h 80% 0.00in /  0mm
10:14 9.8 °F /  -12.3 °C 4.6 °F /  -15.2 °C 30.77in /  1041.9hPa SSE 2.0mph /  3.2km/h 5.0mph /  8km/h 79% 0.00in /  0mm
10:19 10.5 °F /  -11.9 °C 5.0 °F /  -15 °C 30.77in /  1041.9hPa SSE 2.0mph /  3.2km/h 5.0mph /  8km/h 78% 0.00in /  0mm
10:25 10.9 °F /  -11.7 °C 5.1 °F /  -14.9 °C 30.77in /  1041.9hPa SSE 2.0mph /  3.2km/h 4.0mph /  6.4km/h 77% 0.00in /  0mm
10:29 11.3 °F /  -11.5 °C 5.5 °F /  -14.7 °C 30.77in /  1041.9hPa SSE 2.0mph /  3.2km/h 3.0mph /  4.8km/h 77% 0.00in /  0mm
10:34 11.8 °F /  -11.2 °C 6.0 °F /  -14.4 °C 30.77in /  1041.9hPa SSE 2.0mph /  3.2km/h 4.0mph /  6.4km/h 77% 0.00in /  0mm
10:39 12.1 °F /  -11.1 °C 6.0 °F /  -14.4 °C 30.77in /  1041.9hPa SSE 2.0mph /  3.2km/h 4.0mph /  6.4km/h 76% 0.00in /  0mm
10:44 12.5 °F /  -10.8 °C 6.1 °F /  -14.4 °C 30.77in /  1041.9hPa SSE 1.0mph /  1.6km/h 4.0mph /  6.4km/h 75% 0.00in /  0mm
10:49 13.0 °F /  -10.6 °C 6.6 °F /  -14.1 °C 30.77in /  1041.9hPa SSE 2.0mph /  3.2km/h 4.0mph /  6.4km/h 75% 0.00in /  0mm
10:55 13.5 °F /  -10.3 °C 6.8 °F /  -14 °C 30.77in /  1041.9hPa SSE 2.0mph /  3.2km/h 4.0mph /  6.4km/h 74% 0.00in /  0mm
11:00 14.0 °F /  -10 °C 7.2 °F /  -13.8 °C 30.77in /  1041.9hPa SSE 1.0mph /  1.6km/h 4.0mph /  6.4km/h 74% 0.00in /  0mm
11:05 14.0 °F /  -10 °C 6.6 °F /  -14.1 °C 30.77in /  1041.9hPa SSE 1.0mph /  1.6km/h 4.0mph /  6.4km/h 72% 0.00in /  0mm
11:10 14.2 °F /  -9.9 °C 6.8 °F /  -14 °C 30.77in /  1041.9hPa SSE 4.0mph /  6.4km/h 4.0mph /  6.4km/h 72% 0.00in /  0mm
11:15 14.4 °F /  -9.8 °C 6.7 °F /  -14.1 °C 30.77in /  1041.9hPa SSE 3.0mph /  4.8km/h 4.0mph /  6.4km/h 71% 0.00in /  0mm
11:24 15.0 °F /  -9.4 °C 7.0 °F /  -13.9 °C 30.76in /  1041.5hPa SSE 2.0mph /  3.2km/h 4.0mph /  6.4km/h 70% 0.00in /  0mm
11:29 15.4 °F /  -9.2 °C 7.4 °F /  -13.7 °C 30.76in /  1041.5hPa SSE 1.0mph /  1.6km/h 4.0mph /  6.4km/h 70% 0.00in /  0mm
11:35 15.7 °F /  -9.1 °C 7.6 °F /  -13.6 °C 30.76in /  1041.5hPa SSE 2.0mph /  3.2km/h 4.0mph /  6.4km/h 70% 0.00in /  0mm
11:40 16.1 °F /  -8.8 °C 8.0 °F /  -13.3 °C 30.76in /  1041.5hPa SSE 2.0mph /  3.2km/h 4.0mph /  6.4km/h 70% 0.00in /  0mm
11:44 16.0 °F /  -8.9 °C 7.3 °F /  -13.7 °C 30.76in /  1041.5hPa Calm   5.0mph /  8km/h 68% 0.00in /  0mm
11:50 15.7 °F /  -9.1 °C 6.7 °F /  -14.1 °C 30.76in /  1041.5hPa South 2.0mph /  3.2km/h 5.0mph /  8km/h 67% 0.01in /  0.25mm
11:59 16.3 °F /  -8.7 °C 7.6 °F /  -13.6 °C 30.75in /  1041.2hPa South 2.0mph /  3.2km/h 5.0mph /  8km/h 68% 0.01in /  0.25mm
12:04 16.3 °F /  -8.7 °C 7.6 °F /  -13.6 °C 30.75in /  1041.2hPa South 1.0mph /  1.6km/h 4.0mph /  6.4km/h 68% 0.01in /  0.25mm
12:09 16.7 °F /  -8.5 °C 8.0 °F /  -13.3 °C 30.75in /  1041.2hPa SSE 3.0mph /  4.8km/h 4.0mph /  6.4km/h 68% 0.01in /  0.25mm
12:14 16.8 °F /  -8.4 °C 7.7 °F /  -13.5 °C 30.75in /  1041.2hPa Calm   5.0mph /  8km/h 67% 0.01in /  0.25mm
12:19 16.9 °F /  -8.4 °C 7.8 °F /  -13.4 °C 30.74in /  1040.9hPa South 3.0mph /  4.8km/h 4.0mph /  6.4km/h 67% 0.01in /  0.25mm
12:24 17.1 °F /  -8.3 °C 8.0 °F /  -13.3 °C 30.74in /  1040.9hPa Calm   4.0mph /  6.4km/h 67% 0.01in /  0.25mm
12:29 17.4 °F /  -8.1 °C 8.3 °F /  -13.2 °C 30.74in /  1040.9hPa South 2.0mph /  3.2km/h 5.0mph /  8km/h 67% 0.01in /  0.25mm
12:34 17.3 °F /  -8.2 °C 7.9 °F /  -13.4 °C 30.74in /  1040.9hPa SSW 3.0mph /  4.8km/h 7.0mph /  11.3km/h 66% 0.03in /  0.76mm
12:39 17.6 °F /  -8 °C 8.5 °F /  -13.1 °C 30.74in /  1040.9hPa SW 3.0mph /  4.8km/h 7.0mph /  11.3km/h 67% 0.03in /  0.76mm
12:45 17.5 °F /  -8.1 °C 8.1 °F /  -13.3 °C 30.74in /  1040.9hPa SW 3.0mph /  4.8km/h 5.0mph /  8km/h 66% 0.03in /  0.76mm
12:50 17.5 °F /  -8.1 °C 8.4 °F /  -13.1 °C 30.73in /  1040.5hPa SW 3.0mph /  4.8km/h 6.0mph /  9.7km/h 67% 0.02in /  0.51mm
12:54 17.8 °F /  -7.9 °C 8.7 °F /  -12.9 °C 30.73in /  1040.5hPa SSW 2.0mph /  3.2km/h 4.0mph /  6.4km/h 67% 0.04in /  1.02mm
12:59 18.0 °F /  -7.8 °C 8.9 °F /  -12.8 °C 30.73in /  1040.5hPa WSW 4.0mph /  6.4km/h 6.0mph /  9.7km/h 67% 0.04in /  1.02mm
13:04 17.7 °F /  -7.9 °C 8.3 °F /  -13.2 °C 30.73in /  1040.5hPa SW 3.0mph /  4.8km/h 6.0mph /  9.7km/h 66% 0.04in /  1.02mm
13:09 17.7 °F /  -7.9 °C 8.3 °F /  -13.2 °C 30.73in /  1040.5hPa SW 3.0mph /  4.8km/h 6.0mph /  9.7km/h 66% 0.04in /  1.02mm
13:14 17.8 °F /  -7.9 °C 8.7 °F /  -12.9 °C 30.73in /  1040.5hPa West 3.0mph /  4.8km/h 6.0mph /  9.7km/h 67% 0.04in /  1.02mm
13:20 17.6 °F /  -8 °C 8.5 °F /  -13.1 °C 30.73in /  1040.5hPa WSW 4.0mph /  6.4km/h 8.0mph /  12.9km/h 67% 0.04in /  1.02mm
13:24 18.0 °F /  -7.8 °C 9.2 °F /  -12.7 °C 30.73in /  1040.5hPa South 2.0mph /  3.2km/h 6.0mph /  9.7km/h 68% 0.06in /  1.52mm
13:29 18.0 °F /  -7.8 °C 8.9 °F /  -12.8 °C 30.73in /  1040.5hPa West 2.0mph /  3.2km/h 8.0mph /  12.9km/h 67% 0.06in /  1.52mm
13:34 18.0 °F /  -7.8 °C 8.9 °F /  -12.8 °C 30.73in /  1040.5hPa WSW 3.0mph /  4.8km/h 8.0mph /  12.9km/h 67% 0.04in /  1.02mm
13:39 18.2 °F /  -7.7 °C 9.4 °F /  -12.6 °C 30.72in /  1040.2hPa WSW 2.0mph /  3.2km/h 6.0mph /  9.7km/h 68% 0.05in /  1.27mm
13:49 17.8 °F /  -7.9 °C 8.7 °F /  -12.9 °C 30.72in /  1040.2hPa SW 3.0mph /  4.8km/h 7.0mph /  11.3km/h 67% 0.05in /  1.27mm
13:55 18.0 °F /  -7.8 °C 8.9 °F /  -12.8 °C 30.72in /  1040.2hPa WSW 2.0mph /  3.2km/h 4.0mph /  6.4km/h 67% 0.03in /  0.76mm
14:00 18.1 °F /  -7.7 °C 9.0 °F /  -12.8 °C 30.72in /  1040.2hPa WSW 2.0mph /  3.2km/h 5.0mph /  8km/h 67% 0.03in /  0.76mm
14:04 18.3 °F /  -7.6 °C 8.8 °F /  -12.9 °C 30.72in /  1040.2hPa SW 4.0mph /  6.4km/h 5.0mph /  8km/h 66% 0.04in /  1.02mm
14:09 18.1 °F /  -7.7 °C 8.6 °F /  -13 °C 30.72in /  1040.2hPa SW 3.0mph /  4.8km/h 5.0mph /  8km/h 66% 0.04in /  1.02mm
14:14 18.1 °F /  -7.7 °C 8.0 °F /  -13.3 °C 30.72in /  1040.2hPa SSW 3.0mph /  4.8km/h 5.0mph /  8km/h 64% 0.04in /  1.02mm
14:19 17.8 °F /  -7.9 °C 8.0 °F /  -13.3 °C 30.72in /  1040.2hPa Calm   5.0mph /  8km/h 65% 0.04in /  1.02mm
14:24 18.2 °F /  -7.7 °C 8.4 °F /  -13.1 °C 30.72in /  1040.2hPa SSW 1.0mph /  1.6km/h 4.0mph /  6.4km/h 65% 0.02in /  0.51mm
14:34 18.5 °F /  -7.5 °C 8.3 °F /  -13.2 °C 30.71in /  1039.8hPa SSW 3.0mph /  4.8km/h 4.0mph /  6.4km/h 64% 0.03in /  0.76mm
14:39 18.2 °F /  -7.7 °C 7.7 °F /  -13.5 °C 30.72in /  1040.2hPa SW 1.0mph /  1.6km/h 5.0mph /  8km/h 63% 0.02in /  0.51mm
14:44 18.1 °F /  -7.7 °C 7.6 °F /  -13.6 °C 30.72in /  1040.2hPa SW 3.0mph /  4.8km/h 5.0mph /  8km/h 63% 0.02in /  0.51mm
14:49 18.0 °F /  -7.8 °C 7.2 °F /  -13.8 °C 30.72in /  1040.2hPa SW 2.0mph /  3.2km/h 4.0mph /  6.4km/h 62% 0.02in /  0.51mm
14:59 18.2 °F /  -7.7 °C 8.1 °F /  -13.3 °C 30.72in /  1040.2hPa SW 1.0mph /  1.6km/h 3.0mph /  4.8km/h 64% 0.03in /  0.76mm
15:05 18.5 °F /  -7.5 °C 8.3 °F /  -13.2 °C 30.72in /  1040.2hPa SW 2.0mph /  3.2km/h 4.0mph /  6.4km/h 64% 0.02in /  0.51mm
15:10 18.4 °F /  -7.6 °C 8.2 °F /  -13.2 °C 30.72in /  1040.2hPa SSW 2.0mph /  3.2km/h 5.0mph /  8km/h 64% 0.02in /  0.51mm
15:14 18.3 °F /  -7.6 °C 7.8 °F /  -13.4 °C 30.72in /  1040.2hPa Calm   3.0mph /  4.8km/h 63% 0.03in /  0.76mm
15:19 18.3 °F /  -7.6 °C 7.8 °F /  -13.4 °C 30.72in /  1040.2hPa South 2.0mph /  3.2km/h 5.0mph /  8km/h 63% 0.03in /  0.76mm
15:24 18.0 °F /  -7.8 °C 7.2 °F /  -13.8 °C 30.72in /  1040.2hPa South 2.0mph /  3.2km/h 5.0mph /  8km/h 62% 0.03in /  0.76mm
15:29 18.0 °F /  -7.8 °C 6.8 °F /  -14 °C 30.72in /  1040.2hPa South 1.0mph /  1.6km/h 4.0mph /  6.4km/h 61% 0.02in /  0.51mm
15:34 17.8 °F /  -7.9 °C 6.6 °F /  -14.1 °C 30.72in /  1040.2hPa South 2.0mph /  3.2km/h 3.0mph /  4.8km/h 61% 0.02in /  0.51mm
15:39 17.8 °F /  -7.9 °C 7.0 °F /  -13.9 °C 30.72in /  1040.2hPa Calm   4.0mph /  6.4km/h 62% 0.02in /  0.51mm
15:44 17.5 °F /  -8.1 °C 6.3 °F /  -14.3 °C 30.71in /  1039.8hPa Calm   3.0mph /  4.8km/h 61% 0.03in /  0.76mm
15:49 17.4 °F /  -8.1 °C 5.9 °F /  -14.5 °C 30.71in /  1039.8hPa South 1.0mph /  1.6km/h 3.0mph /  4.8km/h 60% 0.03in /  0.76mm
15:59 17.0 °F /  -8.3 °C 5.9 °F /  -14.5 °C 30.71in /  1039.8hPa South 2.0mph /  3.2km/h 4.0mph /  6.4km/h 61% 0.02in /  0.51mm
16:04 16.8 °F /  -8.4 °C 5.7 °F /  -14.6 °C 30.71in /  1039.8hPa South 1.0mph /  1.6km/h 4.0mph /  6.4km/h 61% 0.02in /  0.51mm
16:09 16.6 °F /  -8.6 °C 5.5 °F /  -14.7 °C 30.71in /  1039.8hPa Calm   2.0mph /  3.2km/h 61% 0.02in /  0.51mm
16:15 16.2 °F /  -8.8 °C 5.1 °F /  -14.9 °C 30.71in /  1039.8hPa Calm   2.0mph /  3.2km/h 61% 0.01in /  0.25mm
16:19 16.1 °F /  -8.8 °C 5.4 °F /  -14.8 °C 30.71in /  1039.8hPa South 1.0mph /  1.6km/h 3.0mph /  4.8km/h 62% 0.01in /  0.25mm
16:24 15.9 °F /  -8.9 °C 4.8 °F /  -15.1 °C 30.71in /  1039.8hPa South 1.0mph /  1.6km/h 3.0mph /  4.8km/h 61% 0.01in /  0.25mm
16:29 15.7 °F /  -9.1 °C 4.3 °F /  -15.4 °C 30.71in /  1039.8hPa Calm   2.0mph /  3.2km/h 60% 0.01in /  0.25mm
16:34 15.6 °F /  -9.1 °C 4.2 °F /  -15.4 °C 30.71in /  1039.8hPa Calm     60% 0.01in /  0.25mm
16:49 15.0 °F /  -9.4 °C 3.6 °F /  -15.8 °C 30.71in /  1039.8hPa Calm   2.0mph /  3.2km/h 60% 0.00in /  0mm
17:04 13.6 °F /  -10.2 °C 3.3 °F /  -15.9 °C 30.71in /  1039.8hPa Calm     63% 0.00in /  0mm
17:09 13.2 °F /  -10.4 °C 3.3 °F /  -15.9 °C 30.71in /  1039.8hPa Calm     64% 0.00in /  0mm
17:19 12.5 °F /  -10.8 °C 3.3 °F /  -15.9 °C 30.72in /  1040.2hPa Calm     66% 0.00in /  0mm
17:24 12.1 °F /  -11.1 °C 3.2 °F /  -16 °C 30.72in /  1040.2hPa Calm     67% 0.00in /  0mm
17:29 11.9 °F /  -11.2 °C 3.7 °F /  -15.7 °C 30.72in /  1040.2hPa Calm     69% 0.00in /  0mm
17:34 11.6 °F /  -11.3 °C 3.7 °F /  -15.7 °C 30.72in /  1040.2hPa Calm     70% 0.00in /  0mm
17:39 11.4 °F /  -11.4 °C 3.8 °F /  -15.7 °C 30.72in /  1040.2hPa Calm     71% 0.00in /  0mm
17:44 11.2 °F /  -11.6 °C 3.6 °F /  -15.8 °C 30.72in /  1040.2hPa Calm     71% 0.00in /  0mm
17:49 11.0 °F /  -11.7 °C 3.7 °F /  -15.7 °C 30.72in /  1040.2hPa Calm     72% 0.00in /  0mm
17:54 10.9 °F /  -11.7 °C 3.9 °F /  -15.6 °C 30.72in /  1040.2hPa Calm     73% 0.00in /  0mm
17:59 10.8 °F /  -11.8 °C 4.1 °F /  -15.5 °C 30.72in /  1040.2hPa Calm     74% 0.00in /  0mm
18:04 10.7 °F /  -11.8 °C 4.0 °F /  -15.6 °C 30.72in /  1040.2hPa Calm     74% 0.00in /  0mm
18:09 10.5 °F /  -11.9 °C 4.1 °F /  -15.5 °C 30.72in /  1040.2hPa Calm     75% 0.00in /  0mm
18:14 10.5 °F /  -11.9 °C 4.1 °F /  -15.5 °C 30.72in /  1040.2hPa Calm     75% 0.00in /  0mm
18:19 10.8 °F /  -11.8 °C 4.4 °F /  -15.3 °C 30.72in /  1040.2hPa Calm     75% 0.00in /  0mm
18:24 11.3 °F /  -11.5 °C 4.9 °F /  -15.1 °C 30.72in /  1040.2hPa Calm     75% 0.00in /  0mm
18:29 11.4 °F /  -11.4 °C 5.0 °F /  -15 °C 30.72in /  1040.2hPa Calm     75% 0.00in /  0mm
18:34 11.3 °F /  -11.5 °C 4.9 °F /  -15.1 °C 30.72in /  1040.2hPa Calm     75% 0.00in /  0mm
18:39 11.3 °F /  -11.5 °C 4.9 °F /  -15.1 °C 30.72in /  1040.2hPa Calm   1.0mph /  1.6km/h 75% 0.00in /  0mm
18:44 11.2 °F /  -11.6 °C 4.8 °F /  -15.1 °C 30.71in /  1039.8hPa Calm   1.0mph /  1.6km/h 75% 0.00in /  0mm
18:54 11.2 °F /  -11.6 °C 5.1 °F /  -14.9 °C 30.71in /  1039.8hPa Calm   1.0mph /  1.6km/h 76% 0.00in /  0mm
18:59 11.2 °F /  -11.6 °C 5.1 °F /  -14.9 °C 30.72in /  1040.2hPa Calm   2.0mph /  3.2km/h 76% 0.00in /  0mm
19:04 11.1 °F /  -11.6 °C 5.0 °F /  -15 °C 30.72in /  1040.2hPa Calm   2.0mph /  3.2km/h 76% 0.00in /  0mm
19:09 11.0 °F /  -11.7 °C 4.9 °F /  -15.1 °C 30.72in /  1040.2hPa Calm   1.0mph /  1.6km/h 76% 0.00in /  0mm
19:14 10.8 °F /  -11.8 °C 4.7 °F /  -15.2 °C 30.72in /  1040.2hPa Calm   1.0mph /  1.6km/h 76% 0.00in /  0mm
19:19 10.7 °F /  -11.8 °C 4.6 °F /  -15.2 °C 30.71in /  1039.8hPa Calm     76% 0.00in /  0mm
19:24 10.6 °F /  -11.9 °C 4.5 °F /  -15.3 °C 30.71in /  1039.8hPa Calm     76% 0.00in /  0mm
19:29 10.6 °F /  -11.9 °C 4.5 °F /  -15.3 °C 30.71in /  1039.8hPa South 2.0mph /  3.2km/h 2.0mph /  3.2km/h 76% 0.00in /  0mm
19:34 10.7 °F /  -11.8 °C 4.3 °F /  -15.4 °C 30.71in /  1039.8hPa SSE 2.0mph /  3.2km/h 4.0mph /  6.4km/h 75% 0.00in /  0mm
19:39 10.6 °F /  -11.9 °C 4.2 °F /  -15.4 °C 30.71in /  1039.8hPa Calm   3.0mph /  4.8km/h 75% 0.00in /  0mm
19:49 10.3 °F /  -12.1 °C 3.9 °F /  -15.6 °C 30.71in /  1039.8hPa SSE 1.0mph /  1.6km/h 4.0mph /  6.4km/h 75% 0.00in /  0mm
19:54 10.1 °F /  -12.2 °C 4.0 °F /  -15.6 °C 30.70in /  1039.5hPa SSE 1.0mph /  1.6km/h 4.0mph /  6.4km/h 76% 0.00in /  0mm
19:59 9.9 °F /  -12.3 °C 3.8 °F /  -15.7 °C 30.70in /  1039.5hPa SSE 1.0mph /  1.6km/h 4.0mph /  6.4km/h 76% 0.00in /  0mm
20:04 9.7 °F /  -12.4 °C 3.7 °F /  -15.7 °C 30.70in /  1039.5hPa SSE 1.0mph /  1.6km/h 4.0mph /  6.4km/h 76% 0.00in /  0mm
20:09 9.5 °F /  -12.5 °C 3.5 °F /  -15.8 °C 30.70in /  1039.5hPa SSE 1.0mph /  1.6km/h 4.0mph /  6.4km/h 76% 0.00in /  0mm
20:14 9.3 °F /  -12.6 °C 3.5 °F /  -15.8 °C 30.70in /  1039.5hPa SE 1.0mph /  1.6km/h 4.0mph /  6.4km/h 77% 0.00in /  0mm
20:19 9.3 °F /  -12.6 °C 3.3 °F /  -15.9 °C 30.70in /  1039.5hPa Calm   4.0mph /  6.4km/h 76% 0.00in /  0mm
20:24 9.1 °F /  -12.7 °C 3.1 °F /  -16.1 °C 30.70in /  1039.5hPa SE 2.0mph /  3.2km/h 4.0mph /  6.4km/h 76% 0.00in /  0mm
20:29 9.0 °F /  -12.8 °C 3.3 °F /  -15.9 °C 30.70in /  1039.5hPa Calm   3.0mph /  4.8km/h 77% 0.00in /  0mm
20:34 8.9 °F /  -12.8 °C 3.2 °F /  -16 °C 30.70in /  1039.5hPa Calm   2.0mph /  3.2km/h 77% 0.00in /  0mm
20:39 8.8 °F /  -12.9 °C 3.1 °F /  -16.1 °C 30.70in /  1039.5hPa Calm     77% 0.00in /  0mm
20:44 8.6 °F /  -13 °C 2.9 °F /  -16.2 °C 30.71in /  1039.8hPa Calm     77% 0.00in /  0mm
20:49 8.5 °F /  -13.1 °C 2.8 °F /  -16.2 °C 30.70in /  1039.5hPa Calm     77% 0.00in /  0mm
20:54 8.4 °F /  -13.1 °C 2.7 °F /  -16.3 °C 30.70in /  1039.5hPa Calm     77% 0.00in /  0mm
20:59 8.3 °F /  -13.2 °C 2.6 °F /  -16.3 °C 30.71in /  1039.8hPa Calm     77% 0.00in /  0mm
21:04 8.2 °F /  -13.2 °C 2.5 °F /  -16.4 °C 30.71in /  1039.8hPa Calm     77% 0.00in /  0mm
21:09 8.0 °F /  -13.3 °C 2.3 °F /  -16.5 °C 30.71in /  1039.8hPa Calm   3.0mph /  4.8km/h 77% 0.00in /  0mm
21:19 7.7 °F /  -13.5 °C 2.3 °F /  -16.5 °C 30.71in /  1039.8hPa Calm     78% 0.00in /  0mm
21:24 7.8 °F /  -13.4 °C 2.4 °F /  -16.4 °C 30.71in /  1039.8hPa Calm     78% 0.00in /  0mm
21:29 7.8 °F /  -13.4 °C 2.4 °F /  -16.4 °C 30.71in /  1039.8hPa Calm     78% 0.00in /  0mm
21:34 7.7 °F /  -13.5 °C 2.3 °F /  -16.5 °C 30.71in /  1039.8hPa Calm     78% 0.00in /  0mm
21:39 7.5 °F /  -13.6 °C 2.1 °F /  -16.6 °C 30.71in /  1039.8hPa Calm     78% 0.00in /  0mm
21:44 7.4 °F /  -13.7 °C 2.0 °F /  -16.7 °C 30.72in /  1040.2hPa Calm     78% 0.00in /  0mm
21:49 7.4 °F /  -13.7 °C 2.0 °F /  -16.7 °C 30.71in /  1039.8hPa Calm     78% 0.00in /  0mm
21:54 7.4 °F /  -13.7 °C 2.0 °F /  -16.7 °C 30.71in /  1039.8hPa Calm   3.0mph /  4.8km/h 78% 0.00in /  0mm
21:59 7.4 °F /  -13.7 °C 2.0 °F /  -16.7 °C 30.72in /  1040.2hPa SE 1.0mph /  1.6km/h 3.0mph /  4.8km/h 78% 0.00in /  0mm
22:04 7.3 °F /  -13.7 °C 1.9 °F /  -16.7 °C 30.71in /  1039.8hPa Calm   3.0mph /  4.8km/h 78% 0.00in /  0mm
22:09 7.1 °F /  -13.8 °C 2.0 °F /  -16.7 °C 30.71in /  1039.8hPa SE 1.0mph /  1.6km/h 3.0mph /  4.8km/h 79% 0.00in /  0mm
22:14 7.0 °F /  -13.9 °C 1.9 °F /  -16.7 °C 30.71in /  1039.8hPa Calm   2.0mph /  3.2km/h 79% 0.00in /  0mm
22:19 6.9 °F /  -13.9 °C 1.8 °F /  -16.8 °C 30.71in /  1039.8hPa SE 1.0mph /  1.6km/h 4.0mph /  6.4km/h 79% 0.00in /  0mm
22:24 6.7 °F /  -14.1 °C 1.6 °F /  -16.9 °C 30.71in /  1039.8hPa SE 1.0mph /  1.6km/h 4.0mph /  6.4km/h 79% 0.00in /  0mm
22:29 6.6 °F /  -14.1 °C 1.5 °F /  -16.9 °C 30.71in /  1039.8hPa Calm   3.0mph /  4.8km/h 79% 0.00in /  0mm
22:39 6.4 °F /  -14.2 °C 1.3 °F /  -17.1 °C 30.71in /  1039.8hPa Calm     79% 0.00in /  0mm
22:44 6.5 °F /  -14.2 °C 1.6 °F /  -16.9 °C 30.71in /  1039.8hPa Calm     80% 0.00in /  0mm
22:49 6.4 °F /  -14.2 °C 1.5 °F /  -16.9 °C 30.71in /  1039.8hPa Calm     80% 0.00in /  0mm
22:54 6.4 °F /  -14.2 °C 1.3 °F /  -17.1 °C 30.71in /  1039.8hPa Calm     79% 0.00in /  0mm
22:59 6.3 °F /  -14.3 °C 1.2 °F /  -17.1 °C 30.71in /  1039.8hPa Calm     79% 0.00in /  0mm
23:04 6.2 °F /  -14.3 °C 1.1 °F /  -17.2 °C 30.70in /  1039.5hPa Calm     79% 0.00in /  0mm
23:09 6.2 °F /  -14.3 °C 1.4 °F /  -17 °C 30.70in /  1039.5hPa Calm     80% 0.00in /  0mm
23:14 6.0 °F /  -14.4 °C 1.2 °F /  -17.1 °C 30.70in /  1039.5hPa Calm     80% 0.00in /  0mm
23:19 5.9 °F /  -14.5 °C 1.1 °F /  -17.2 °C 30.70in /  1039.5hPa Calm     80% 0.00in /  0mm
23:24 5.9 °F /  -14.5 °C 1.1 °F /  -17.2 °C 30.70in /  1039.5hPa Calm     80% 0.00in /  0mm
23:29 5.9 °F /  -14.5 °C 1.1 °F /  -17.2 °C 30.70in /  1039.5hPa Calm     80% 0.00in /  0mm
23:34 5.9 °F /  -14.5 °C 1.1 °F /  -17.2 °C 30.70in /  1039.5hPa Calm     80% 0.00in /  0mm
23:39 5.9 °F /  -14.5 °C 1.1 °F /  -17.2 °C 30.70in /  1039.5hPa Calm     80% 0.00in /  0mm
23:44 6.1 °F /  -14.4 °C 1.3 °F /  -17.1 °C 30.70in /  1039.5hPa Calm     80% 0.00in /  0mm
23:49 6.1 °F /  -14.4 °C 1.3 °F /  -17.1 °C 30.70in /  1039.5hPa Calm     80% 0.00in /  0mm
23:54 6.2 °F /  -14.3 °C 1.4 °F /  -17 °C 30.70in /  1039.5hPa Calm     80% 0.00in /  0mm
23:59 6.1 °F /  -14.4 °C 1.3 °F /  -17.1 °C 30.70in /  1039.5hPa Calm     80% 0.00in /  0mm
Buffalo, New York, USA
Compliments of Weather Underground - 2.25 mb